Time;durP1;ratioP1;P1;durP2;ratioP2;P2;SDS_P1;SDS_P2;PMS_P1;PMS_P2;Temp;Humidity;BMP_temperature;BMP_pressure;BME280_temperature;BME280_humidity;BME280_pressure;Samples;Min_cycle;Max_cycle;Signal;HPM_P1;HPM_P2
2022/04/04 00:02:14;;;;;;;4.22;3.83;;;;;;;9.71;55.45;98413.22;4938007;29;20182;-67
2022/04/04 00:04:40;;;;;;;4.57;4.18;;;;;;;9.76;55.65;98409.41;4940130;28;21122;-67
2022/04/04 00:07:06;;;;;;;3.72;3.50;;;;;;;9.57;56.78;98419.28;4948170;29;20235;-65
2022/04/04 00:09:31;;;;;;;3.30;3.10;;;;;;;9.61;56.00;98422.50;4947892;29;20647;-65
2022/04/04 00:11:57;;;;;;;3.83;3.53;;;;;;;9.77;54.30;98423.16;4948429;28;20204;-66
2022/04/04 00:14:22;;;;;;;3.97;3.67;;;;;;;9.82;53.95;98434.03;4951648;29;20248;-65
2022/04/04 00:16:48;;;;;;;4.63;4.13;;;;;;;9.81;53.70;98427.22;4951534;29;20192;-65
2022/04/04 00:19:14;;;;;;;4.00;3.70;;;;;;;9.86;53.46;98423.38;4951630;29;20192;-67
2022/04/04 00:21:41;;;;;;;4.28;3.88;;;;;;;9.87;53.06;98424.22;4941180;29;20207;-66
2022/04/04 00:24:07;;;;;;;4.10;3.72;;;;;;;9.81;54.08;98422.03;4941295;29;20200;-66
2022/04/04 00:26:32;;;;;;;3.33;3.13;;;;;;;9.88;53.27;98433.63;4946922;29;20263;-66
2022/04/04 00:28:58;;;;;;;4.10;3.80;;;;;;;9.93;52.60;98426.41;4951644;29;20192;-65
2022/04/04 00:31:23;;;;;;;4.15;3.85;;;;;;;9.61;54.23;98430.25;4951341;29;20209;-65
2022/04/04 00:33:49;;;;;;;4.28;3.97;;;;;;;9.43;55.51;98426.25;4951204;29;20260;-65
2022/04/04 00:36:15;;;;;;;3.63;3.38;;;;;;;9.46;55.72;98420.91;4951193;29;20686;-65
2022/04/04 00:38:41;;;;;;;4.10;3.80;;;;;;;9.58;54.84;98425.28;4951250;29;20188;-65
2022/04/04 00:41:12;;;;;;;3.85;3.55;;;;;;;9.68;55.60;98431.50;4948456;29;20203;-65
2022/04/04 00:43:38;;;;;;;3.45;3.20;;;;;;;9.77;54.30;98429.16;4939732;29;20193;-65
2022/04/04 00:46:05;;;;;;;4.40;4.00;;;;;;;9.66;55.57;98428.19;4941948;29;20185;-66
2022/04/04 00:48:30;;;;;;;4.45;4.15;;;;;;;9.73;55.52;98423.47;4949678;29;20216;-66
2022/04/04 00:50:56;;;;;;;4.20;3.90;;;;;;;9.77;55.05;98433.50;4950725;29;20207;-65
2022/04/04 00:53:22;;;;;;;4.20;3.90;;;;;;;9.59;56.46;98426.94;4950997;29;20192;-65
2022/04/04 00:55:48;;;;;;;4.68;4.28;;;;;;;9.62;57.98;98425.91;4950873;29;20185;-66
2022/04/04 00:58:17;;;;;;;4.63;4.30;;;;;;;9.50;60.24;98421.53;4950883;29;20200;-65
2022/04/04 01:00:45;;;;;;;4.47;4.07;;;;;;;9.51;60.99;98425.78;4950832;29;20197;-67
2022/04/04 01:03:10;;;;;;;6.80;5.18;;;;;;;9.28;59.80;98419.50;4942776;28;20236;-66
2022/04/04 01:05:36;;;;;;;3.83;3.53;;;;;;;9.37;58.75;98424.06;4940415;29;20184;-65
2022/04/04 01:08:01;;;;;;;4.15;3.85;;;;;;;9.44;58.17;98419.34;4943726;29;20189;-66
2022/04/04 01:10:28;;;;;;;4.57;4.25;;;;;;;9.48;59.35;98428.53;4950562;29;20189;-67
2022/04/04 01:12:54;;;;;;;5.13;4.60;;;;;;;9.21;60.27;98431.09;4950626;29;20189;-66
2022/04/04 01:15:22;;;;;;;4.75;4.35;;;;;;;8.98;61.83;98423.97;4950302;29;20195;-65
2022/04/04 01:17:49;;;;;;;4.85;4.45;;;;;;;8.82;61.63;98432.75;4950531;29;20256;-65
2022/04/04 01:20:14;;;;;;;4.60;4.20;;;;;;;8.71;62.54;98430.84;4950427;29;20556;-65
2022/04/04 01:22:45;;;;;;;4.93;4.43;;;;;;;8.53;62.71;98431.94;4950247;29;20659;-65
2022/04/04 01:25:11;;;;;;;4.95;4.57;;;;;;;8.56;62.77;98429.16;4938043;28;20190;-65
2022/04/04 01:27:39;;;;;;;4.70;4.40;;;;;;;8.35;64.50;98421.88;4940633;29;20231;-66
2022/04/04 01:30:07;;;;;;;6.10;4.60;;;;;;;8.40;64.36;98425.03;4946761;29;20188;-65
2022/04/04 01:32:34;;;;;;;5.32;4.82;;;;;;;8.24;64.53;98422.53;4950018;29;20295;-66
2022/04/04 01:35:00;;;;;;;4.35;4.05;;;;;;;8.37;62.28;98436.34;4950191;29;20197;-66
2022/04/04 01:37:25;;;;;;;5.57;4.97;;;;;;;8.38;63.65;98435.44;4950528;29;20264;-66
2022/04/04 01:39:51;;;;;;;5.18;4.78;;;;;;;8.41;63.57;98437.00;4950169;29;20200;-65
2022/04/04 01:42:16;;;;;;;7.63;6.20;;;;;;;8.33;65.32;98434.06;4949794;29;20240;-65
2022/04/04 01:44:42;;;;;;;6.40;5.63;;;;;;;8.35;66.54;98438.19;4945418;29;20193;-64
2022/04/04 01:47:07;;;;;;;5.50;5.00;;;;;;;8.50;63.15;98445.00;4939209;29;20181;-65
2022/04/04 01:49:33;;;;;;;6.18;5.60;;;;;;;8.40;65.19;98449.03;4940957;29;20985;-65
2022/04/04 01:51:58;;;;;;;5.70;5.20;;;;;;;8.22;65.63;98452.69;4949385;29;20295;-65
2022/04/04 01:54:24;;;;;;;5.57;4.78;;;;;;;8.36;62.58;98454.47;4949755;29;20629;-64
2022/04/04 01:56:49;;;;;;;5.45;4.95;;;;;;;8.34;60.86;98451.16;4949692;29;20191;-64
2022/04/04 01:59:15;;;;;;;5.78;5.25;;;;;;;8.35;63.32;98458.81;4950292;29;20189;-64
2022/04/04 02:01:41;;;;;;;5.40;4.97;;;;;;;8.22;63.57;98447.53;4949737;29;20208;-64
2022/04/04 02:04:08;;;;;;;7.05;4.43;;;;;;;8.32;57.75;98459.00;4949375;28;20224;-64
2022/04/04 02:06:34;;;;;;;4.18;3.47;;;;;;;8.53;55.10;98472.34;4940957;29;20203;-67
2022/04/04 02:08:59;;;;;;;5.22;4.63;;;;;;;8.59;58.08;98465.09;4939112;29;20594;-65
2022/04/04 02:11:25;;;;;;;6.75;6.07;;;;;;;8.41;61.21;98473.94;4943216;29;20268;-65
2022/04/04 02:13:50;;;;;;;4.22;3.92;;;;;;;8.37;59.05;98477.59;4949551;29;20272;-65
2022/04/04 02:16:16;;;;;;;6.30;5.70;;;;;;;8.32;62.29;98474.44;4949685;29;20207;-66
2022/04/04 02:18:41;;;;;;;6.53;5.88;;;;;;;8.38;63.31;98471.50;4949410;29;20665;-64
2022/04/04 02:21:07;;;;;;;5.43;5.00;;;;;;;8.28;64.56;98478.13;4949408;29;20181;-65
2022/04/04 02:23:34;;;;;;;5.80;5.22;;;;;;;8.18;65.15;98481.28;4949707;29;20687;-65
2022/04/04 02:26:00;;;;;;;4.88;4.47;;;;;;;8.24;65.76;98479.25;4949069;29;20300;-66
2022/04/04 02:28:26;;;;;;;4.78;4.32;;;;;;;8.27;65.37;98479.03;4937491;29;20615;-64
2022/04/04 02:30:52;;;;;;;4.22;3.90;;;;;;;8.55;61.26;98476.50;4939291;29;20219;-64
2022/04/04 02:33:19;;;;;;;4.68;4.28;;;;;;;8.65;59.55;98480.22;4945794;29;20196;-64
2022/04/04 02:35:46;;;;;;;4.40;4.00;;;;;;;8.77;57.90;98479.47;4948978;28;20692;-64
2022/04/04 02:38:12;;;;;;;4.00;3.70;;;;;;;8.79;57.90;98472.47;4949025;29;20573;-66
2022/04/04 02:40:40;;;;;;;4.40;4.00;;;;;;;8.94;57.25;98483.59;4949074;29;20729;-64
2022/04/04 02:43:06;;;;;;;5.13;4.63;;;;;;;8.86;58.91;98485.84;4949018;29;20181;-64
2022/04/04 02:45:32;;;;;;;4.53;4.13;;;;;;;8.92;57.01;98481.09;4948657;29;20251;-64
2022/04/04 02:47:58;;;;;;;4.45;4.15;;;;;;;9.01;56.42;98490.88;4944200;29;20671;-66
2022/04/04 02:50:23;;;;;;;4.47;4.18;;;;;;;8.85;57.93;98482.41;4937929;29;20189;-66
2022/04/04 02:52:49;;;;;;;4.28;3.95;;;;;;;8.75;57.68;98494.19;4940184;29;20649;-64
2022/04/04 02:57:59;;;;;;;6.10;4.25;;;;;;;8.85;55.75;98485.00;4949044;29;20276;-64
2022/04/04 03:00:24;;;;;;;4.18;3.88;;;;;;;8.89;54.08;98486.47;4948732;29;20271;-64
2022/04/04 03:02:52;;;;;;;5.25;4.75;;;;;;;8.40;58.69;98477.41;4948917;28;20240;-64
2022/04/04 03:05:17;;;;;;;4.97;4.57;;;;;;;8.18;60.15;98476.97;4948650;29;20291;-66
2022/04/04 03:07:44;;;;;;;5.20;4.72;;;;;;;8.02;60.41;98480.50;4948486;29;20280;-65
2022/04/04 03:10:11;;;;;;;5.50;5.00;;;;;;;7.91;60.93;98488.84;4938282;29;20260;-66
2022/04/04 03:12:48;;;;;;;4.93;4.53;;;;;;;7.91;60.60;98483.72;4938664;29;20387;-65
2022/04/04 03:15:16;;;;;;;5.05;4.65;;;;;;;7.83;61.84;98488.47;4944706;29;20185;-66
2022/04/04 03:17:45;;;;;;;5.18;4.75;;;;;;;8.01;61.56;98490.00;4948693;29;20212;-66
2022/04/04 03:20:12;;;;;;;4.88;4.40;;;;;;;8.15;60.79;98489.22;4948384;29;20196;-65
2022/04/04 03:22:40;;;;;;;6.05;5.55;;;;;;;7.73;61.69;98489.03;4948678;29;20185;-65
2022/04/04 03:25:08;;;;;;;5.25;4.85;;;;;;;7.22;63.25;98490.16;4948602;29;20212;-66
2022/04/04 03:27:35;;;;;;;6.22;5.45;;;;;;;7.15;64.60;98493.97;4948612;29;20184;-64
2022/04/04 03:30:00;;;;;;;5.05;4.65;;;;;;;7.02;65.10;98490.41;4943995;29;20436;-66
2022/04/04 03:32:26;;;;;;;5.75;4.85;;;;;;;6.96;63.76;98498.47;4937513;29;20213;-66
2022/04/04 03:34:51;;;;;;;4.97;4.47;;;;;;;7.14;63.04;98497.47;4939408;29;20836;-65
2022/04/04 03:37:17;;;;;;;5.47;4.78;;;;;;;7.24;63.96;98501.22;4948033;29;20219;-65
2022/04/04 03:39:43;;;;;;;4.93;4.53;;;;;;;7.22;63.32;98497.88;4948401;29;20586;-65
2022/04/04 03:42:08;;;;;;;5.25;4.75;;;;;;;7.42;61.65;98502.81;4948591;29;20189;-65
2022/04/04 03:44:34;;;;;;;4.25;3.95;;;;;;;7.36;60.46;98510.84;4948152;29;20189;-67
2022/04/04 03:46:59;;;;;;;4.78;4.38;;;;;;;7.30;60.45;98500.91;4949101;28;20185;-66
2022/04/04 03:49:25;;;;;;;4.18;3.88;;;;;;;7.44;56.84;98513.84;4952183;29;20683;-65
2022/04/04 03:51:51;;;;;;;4.53;4.13;;;;;;;7.57;56.78;98511.44;4943243;29;20569;-65
2022/04/04 03:54:16;;;;;;;5.20;3.92;;;;;;;7.31;56.78;98518.00;4941375;29;20228;-65
2022/04/04 03:56:43;;;;;;;4.72;4.25;;;;;;;7.24;58.00;98516.66;4946005;29;20589;-65
2022/04/04 03:59:09;;;;;;;5.07;4.40;;;;;;;7.28;58.83;98520.72;4951932;29;20275;-65
2022/04/04 04:01:34;;;;;;;4.35;4.05;;;;;;;7.36;56.40;98526.31;4952081;29;20211;-65
2022/04/04 04:04:00;;;;;;;5.50;4.60;;;;;;;7.31;59.49;98523.13;4951504;28;20380;-65
2022/04/04 04:06:25;;;;;;;4.90;4.50;;;;;;;7.20;59.15;98528.03;4951720;29;20272;-65
2022/04/04 04:08:51;;;;;;;5.35;4.85;;;;;;;7.20;59.68;98535.75;4951668;29;20207;-65
2022/04/04 04:11:17;;;;;;;4.78;4.35;;;;;;;7.08;60.91;98531.25;4950913;29;20662;-65
2022/04/04 04:13:45;;;;;;;4.82;4.32;;;;;;;6.94;61.70;98533.69;4940278;29;20189;-65
2022/04/04 04:16:12;;;;;;;5.30;4.80;;;;;;;7.15;62.57;98542.88;4941882;29;20220;-65
2022/04/04 04:18:38;;;;;;;5.57;5.07;;;;;;;7.39;61.98;98546.72;4949258;29;20259;-65
2022/04/04 04:21:05;;;;;;;5.10;4.65;;;;;;;7.57;61.87;98550.88;4951874;29;20718;-65
2022/04/04 04:23:30;;;;;;;8.52;5.53;;;;;;;7.55;61.53;98547.56;4951590;29;20197;-65
2022/04/04 04:25:56;;;;;;;6.45;5.85;;;;;;;7.54;62.04;98548.47;4951542;29;20637;-65
2022/04/04 04:28:22;;;;;;;8.10;6.22;;;;;;;7.61;61.86;98562.66;4951273;29;20185;-65
2022/04/04 04:30:47;;;;;;;7.63;6.82;;;;;;;7.72;61.81;98560.34;4951807;29;20262;-65
2022/04/04 04:33:13;;;;;;;9.93;6.53;;;;;;;7.71;62.41;98563.00;4945825;29;20223;-64
2022/04/04 04:35:39;;;;;;;8.45;6.68;;;;;;;7.75;62.82;98569.66;4940705;29;20669;-66
2022/04/04 04:38:04;;;;;;;6.07;5.55;;;;;;;7.72;64.09;98573.22;4942801;29;20181;-65
2022/04/04 04:40:30;;;;;;;11.05;6.57;;;;;;;7.83;63.09;98578.63;4951459;29;20189;-65
2022/04/04 04:42:56;;;;;;;7.88;5.78;;;;;;;7.94;63.23;98585.75;4950917;29;20184;-64
2022/04/04 04:45:22;;;;;;;8.85;7.43;;;;;;;7.96;63.99;98586.47;4951068;29;20193;-66
2022/04/04 04:47:49;;;;;;;8.57;6.38;;;;;;;8.08;63.60;98588.38;4951168;29;20558;-65
2022/04/04 04:50:17;;;;;;;11.68;8.07;;;;;;;8.07;63.30;98597.88;4951032;29;20181;-65
2022/04/04 04:52:44;;;;;;;11.18;7.20;;;;;;;8.17;63.24;98603.34;4951040;29;20716;-65
2022/04/04 04:55:11;;;;;;;6.97;6.28;;;;;;;8.26;63.44;98606.25;4941352;29;20710;-65
2022/04/04 04:57:36;;;;;;;9.50;6.78;;;;;;;8.32;62.98;98616.22;4940688;29;20185;-65
2022/04/04 05:00:04;;;;;;;22.40;12.90;;;;;;;8.38;62.21;98613.31;4945081;28;20177;-65
2022/04/04 05:02:30;;;;;;;10.27;8.05;;;;;;;8.25;63.04;98614.06;4950857;28;20247;-65
2022/04/04 05:04:55;;;;;;;16.00;10.15;;;;;;;8.16;63.17;98619.72;4950685;29;20657;-65
2022/04/04 05:07:20;;;;;;;6.75;5.30;;;;;;;7.71;67.01;98610.19;4950887;29;20185;-65
2022/04/04 05:09:46;;;;;;;6.15;4.80;;;;;;;7.90;65.33;98616.00;4950668;29;20196;-65
2022/04/04 05:12:12;;;;;;;4.93;4.43;;;;;;;8.04;66.62;98607.53;4950633;29;20208;-65
2022/04/04 05:14:40;;;;;;;6.03;4.40;;;;;;;8.31;66.31;98611.16;4948977;29;20203;-65
2022/04/04 05:17:06;;;;;;;4.03;3.70;;;;;;;8.44;65.99;98619.88;4939212;29;20266;-65
2022/04/04 05:19:32;;;;;;;5.47;4.07;;;;;;;8.43;64.52;98626.78;4940705;29;20682;-65
2022/04/04 05:21:58;;;;;;;4.43;3.28;;;;;;;8.61;63.11;98625.72;4948141;29;20189;-65
2022/04/04 05:24:23;;;;;;;5.30;4.75;;;;;;;8.56;64.76;98627.72;4950450;29;20706;-65
2022/04/04 05:26:48;;;;;;;10.20;7.18;;;;;;;8.66;65.03;98634.03;4950325;29;20263;-65
2022/04/04 05:29:17;;;;;;;7.80;5.45;;;;;;;8.69;65.35;98639.00;4950524;29;20181;-65
2022/04/04 05:31:45;;;;;;;5.60;3.85;;;;;;;8.79;63.64;98635.00;4950230;29;20209;-65
2022/04/04 05:34:11;;;;;;;5.32;4.78;;;;;;;8.76;61.90;98624.03;4950330;29;20628;-65
2022/04/04 05:36:36;;;;;;;2.95;2.75;;;;;;;8.73;63.47;98629.38;4943667;29;20263;-65
2022/04/04 05:39:04;;;;;;;3.63;3.15;;;;;;;8.63;64.34;98630.81;4940091;29;20181;-65
2022/04/04 05:41:29;;;;;;;9.35;5.57;;;;;;;8.68;63.29;98636.53;4942277;29;20288;-65
2022/04/04 05:43:55;;;;;;;8.98;8.02;;;;;;;8.77;61.92;98631.69;4949684;29;20667;-65
2022/04/04 05:46:20;;;;;;;7.07;4.95;;;;;;;8.82;62.02;98639.13;4950069;29;20185;-66
2022/04/04 05:48:46;;;;;;;3.20;2.70;;;;;;;8.77;63.41;98641.16;4950289;29;20224;-65
2022/04/04 05:51:17;;;;;;;3.40;3.10;;;;;;;8.72;64.93;98644.00;4949791;29;20219;-65
2022/04/04 05:53:44;;;;;;;4.40;3.40;;;;;;;8.70;63.87;98639.84;4949891;29;20236;-65
2022/04/04 05:56:09;;;;;;;2.97;2.78;;;;;;;8.20;66.10;98640.13;4950023;29;20189;-65
2022/04/04 05:58:36;;;;;;;3.90;3.42;;;;;;;7.88;67.84;98638.44;4938999;29;20703;-65
2022/04/04 06:01:02;;;;;;;3.42;3.13;;;;;;;7.73;69.63;98647.00;4939989;29;20574;-65
2022/04/04 06:03:28;;;;;;;4.38;3.50;;;;;;;8.04;69.46;98648.75;4945025;28;20216;-65
2022/04/04 06:05:54;;;;;;;3.78;3.47;;;;;;;8.32;67.85;98649.75;4949708;29;20195;-65
2022/04/04 06:08:20;;;;;;;4.55;3.50;;;;;;;8.69;67.03;98654.47;4949637;29;20185;-65
2022/04/04 06:10:46;;;;;;;5.05;3.58;;;;;;;8.76;63.78;98649.81;4949142;28;20185;-65
2022/04/04 06:13:17;;;;;;;5.78;4.82;;;;;;;8.81;61.02;98648.66;4949633;29;20196;-65
2022/04/04 06:15:43;;;;;;;7.65;5.70;;;;;;;8.89;60.80;98648.19;4932333;29;20199;-65
2022/04/04 06:18:09;;;;;;;10.18;6.53;;;;;;;9.04;58.32;98655.84;4945738;29;20642;-65
2022/04/04 06:20:35;;;;;;;8.82;6.45;;;;;;;9.19;58.41;98660.13;4938654;29;20192;-66
2022/04/04 06:23:01;;;;;;;7.30;6.57;;;;;;;9.32;56.91;98647.34;4940725;29;20267;-65
2022/04/04 06:25:27;;;;;;;7.97;7.05;;;;;;;9.36;57.08;98659.97;4947948;29;20347;-65
2022/04/04 06:27:53;;;;;;;9.43;6.70;;;;;;;9.53;55.86;98646.88;4949321;29;20289;-65
2022/04/04 06:30:18;;;;;;;8.73;6.88;;;;;;;9.79;55.49;98651.25;4949324;29;20185;-65
2022/04/04 06:32:44;;;;;;;8.38;6.03;;;;;;;9.96;54.00;98651.91;4949253;29;20587;-65
2022/04/04 06:35:14;;;;;;;8.27;6.65;;;;;;;10.15;52.71;98655.03;4949034;29;20188;-65
2022/04/04 06:37:40;;;;;;;7.95;5.22;;;;;;;10.25;53.15;98670.78;4949111;29;20196;-65
2022/04/04 06:40:07;;;;;;;6.80;5.57;;;;;;;10.35;53.39;98671.88;4940582;29;20192;-65
2022/04/04 06:42:40;;;;;;;6.72;6.10;;;;;;;10.42;52.38;98675.72;4938457;29;20694;-65
2022/04/04 06:45:07;;;;;;;6.47;5.82;;;;;;;10.57;52.33;98687.69;4942963;29;20205;-65
2022/04/04 06:47:33;;;;;;;7.40;5.43;;;;;;;10.68;51.78;98682.66;4948871;29;20185;-65
2022/04/04 06:49:59;;;;;;;6.07;5.45;;;;;;;10.70;50.72;98675.63;4948973;29;20199;-65
2022/04/04 06:52:25;;;;;;;7.03;5.72;;;;;;;10.60;50.90;98667.63;4948819;29;20204;-66
2022/04/04 06:54:53;;;;;;;6.50;5.90;;;;;;;10.68;51.24;98680.06;4948668;29;20224;-64
2022/04/04 06:57:18;;;;;;;6.88;5.55;;;;;;;10.78;50.08;98681.13;4948850;29;20205;-64
2022/04/04 06:59:44;;;;;;;6.15;5.55;;;;;;;10.79;50.66;98678.44;4948285;29;20189;-66
2022/04/04 07:02:09;;;;;;;6.70;5.03;;;;;;;10.88;49.39;98684.78;4937207;29;20184;-65
2022/04/04 07:04:37;;;;;;;5.53;5.05;;;;;;;11.06;47.52;98693.91;4939010;28;20731;-64
2022/04/04 07:07:03;;;;;;;5.10;4.70;;;;;;;11.14;46.55;98696.84;4945978;29;20218;-64
2022/04/04 07:09:29;;;;;;;11.85;5.25;;;;;;;11.21;45.81;98695.50;4948720;29;20540;-66
2022/04/04 07:11:54;;;;;;;5.25;4.85;;;;;;;11.18;46.26;98690.50;4948555;29;20682;-66
2022/04/04 07:14:20;;;;;;;5.50;4.63;;;;;;;11.21;45.08;98692.91;4948650;29;20185;-66
2022/04/04 07:16:45;;;;;;;5.22;4.72;;;;;;;11.25;44.22;98691.75;4948591;29;20185;-66
2022/04/04 07:19:15;;;;;;;4.82;4.43;;;;;;;11.42;43.89;98694.06;4948607;29;20274;-65
2022/04/04 07:21:44;;;;;;;6.15;4.97;;;;;;;11.42;42.82;98699.22;4942988;28;20193;-66
2022/04/04 07:24:10;;;;;;;5.00;4.38;;;;;;;11.45;41.93;98693.84;4942037;29;20216;-66
2022/04/04 07:26:36;;;;;;;4.78;4.38;;;;;;;11.53;42.45;98696.75;4944576;29;20258;-64
2022/04/04 07:29:02;;;;;;;4.53;4.10;;;;;;;11.54;42.43;98696.66;4952445;29;20601;-66
2022/04/04 07:31:27;;;;;;;5.80;4.38;;;;;;;11.58;41.96;98705.91;4952501;29;20664;-65
2022/04/04 07:33:54;;;;;;;4.90;4.38;;;;;;;11.66;42.06;98708.81;4952178;29;20235;-65
2022/04/04 07:36:19;;;;;;;6.57;4.82;;;;;;;11.78;41.44;98707.16;4952391;29;20215;-65
2022/04/04 07:38:45;;;;;;;5.65;5.22;;;;;;;11.72;41.23;98712.75;4952253;29;20209;-65
2022/04/04 07:41:10;;;;;;;7.05;6.35;;;;;;;11.73;40.95;98714.41;4952345;29;20176;-64
2022/04/04 07:43:35;;;;;;;7.57;6.20;;;;;;;11.76;41.70;98703.81;4942359;29;20197;-65
2022/04/04 07:46:01;;;;;;;5.30;4.80;;;;;;;11.84;41.51;98714.50;4942261;29;20303;-65
2022/04/04 07:48:27;;;;;;;6.85;6.07;;;;;;;11.93;40.75;98719.06;4947297;29;20228;-64
2022/04/04 07:50:52;;;;;;;4.85;4.45;;;;;;;11.82;40.58;98729.31;4952060;29;20248;-65
2022/04/04 07:53:18;;;;;;;4.65;4.05;;;;;;;11.86;40.94;98710.03;4952040;29;20192;-66
2022/04/04 07:55:44;;;;;;;5.03;4.53;;;;;;;11.96;40.35;98717.06;4952336;29;20243;-65
2022/04/04 07:58:09;;;;;;;5.28;4.88;;;;;;;12.08;40.42;98723.19;4951960;29;20812;-65
2022/04/04 08:00:35;;;;;;;5.50;4.95;;;;;;;12.22;40.62;98720.44;4951930;29;20185;-65
2022/04/04 08:03:00;;;;;;;5.07;4.68;;;;;;;12.35;39.95;98726.44;4949706;28;20452;-65
2022/04/04 08:05:26;;;;;;;4.75;4.35;;;;;;;12.31;39.86;98725.81;4941046;29;20833;-65
2022/04/04 08:07:52;;;;;;;5.55;5.00;;;;;;;12.42;39.43;98723.28;4942313;29;20621;-65
2022/04/04 08:10:18;;;;;;;5.18;4.25;;;;;;;12.49;39.15;98727.09;4949460;29;20211;-65
2022/04/04 08:12:49;;;;;;;6.90;3.88;;;;;;;12.40;38.87;98732.13;4951685;29;20268;-65
2022/04/04 08:15:15;;;;;;;4.00;3.63;;;;;;;12.32;39.46;98718.88;4951940;29;20185;-65
2022/04/04 08:17:41;;;;;;;4.57;4.18;;;;;;;12.44;39.19;98730.97;4951589;29;20185;-65
2022/04/04 08:20:08;;;;;;;5.03;4.63;;;;;;;12.60;39.28;98731.56;4951379;29;20212;-65
2022/04/04 08:22:43;;;;;;;4.18;3.78;;;;;;;12.60;38.50;98728.97;4951490;29;20697;-65
2022/04/04 08:25:10;;;;;;;6.38;3.90;;;;;;;12.63;38.74;98723.53;4943632;29;20223;-65
2022/04/04 08:27:36;;;;;;;4.15;3.80;;;;;;;12.52;38.55;98721.72;4941380;29;20191;-65
2022/04/04 08:30:06;;;;;;;4.35;3.83;;;;;;;12.61;39.18;98721.03;4944554;29;20181;-65
2022/04/04 08:32:39;;;;;;;4.47;4.13;;;;;;;12.64;38.09;98720.84;4951816;28;20197;-65
2022/04/04 08:35:10;;;;;;;3.95;3.63;;;;;;;12.70;38.40;98710.00;4934214;29;20287;-65
2022/04/04 08:37:37;;;;;;;5.05;4.00;;;;;;;12.68;37.98;98718.84;4951526;29;20247;-65
2022/04/04 08:40:05;;;;;;;8.35;4.10;;;;;;;12.74;38.55;98716.66;4951109;29;20193;-65
2022/04/04 08:42:31;;;;;;;4.13;3.83;;;;;;;12.89;38.70;98709.50;4951239;29;20188;-65
2022/04/04 08:44:58;;;;;;;5.93;4.07;;;;;;;13.08;38.25;98712.44;4949605;29;20189;-65
2022/04/04 08:47:25;;;;;;;4.57;3.83;;;;;;;13.03;36.87;98694.59;4939582;29;20217;-65
2022/04/04 08:49:52;;;;;;;10.60;4.28;;;;;;;13.23;37.06;98713.88;4941970;29;20185;-65
2022/04/04 08:52:18;;;;;;;3.90;3.50;;;;;;;13.19;36.99;98708.09;4948261;29;20284;-65
2022/04/04 08:54:43;;;;;;;4.38;3.72;;;;;;;13.15;36.80;98709.28;4950950;29;20242;-67
2022/04/04 08:57:09;;;;;;;4.00;3.67;;;;;;;13.18;36.75;98713.44;4950969;29;20264;-65
2022/04/04 08:59:34;;;;;;;3.70;3.25;;;;;;;13.09;36.72;98706.28;4933459;29;20220;-65
2022/04/04 09:02:00;;;;;;;3.97;3.65;;;;;;;13.16;36.75;98697.94;4950927;29;20181;-65
2022/04/04 09:04:26;;;;;;;6.32;4.35;;;;;;;13.10;37.31;98692.34;4950747;28;20303;-65
2022/04/04 09:06:52;;;;;;;4.00;3.47;;;;;;;13.05;36.91;98689.28;4944696;29;20349;-65
2022/04/04 09:09:25;;;;;;;4.68;3.63;;;;;;;12.99;37.21;98687.97;4940466;29;20189;-67
2022/04/04 09:12:14;;;;;;;4.80;3.88;;;;;;;13.09;37.36;98675.97;4942750;29;20212;-65
2022/04/04 09:14:54;;;;;;;5.13;3.63;;;;;;;13.23;37.24;98678.34;4933316;29;20193;-65
2022/04/04 09:17:27;;;;;;;4.28;3.88;;;;;;;13.27;37.28;98671.16;4950494;29;20177;-67
2022/04/04 09:19:53;;;;;;;4.22;3.83;;;;;;;13.16;38.08;98660.72;4933242;29;20185;-66
2022/04/04 09:22:19;;;;;;;5.03;3.78;;;;;;;13.29;38.17;98664.09;4950454;29;20568;-66
2022/04/04 09:24:56;;;;;;;5.18;3.97;;;;;;;13.31;37.82;98664.78;4950405;29;20193;-66
2022/04/04 09:27:28;;;;;;;5.97;3.70;;;;;;;13.21;38.29;98656.00;4947347;29;20188;-66
2022/04/04 09:30:20;;;;;;;4.57;4.18;;;;;;;13.34;38.14;98652.38;4939513;29;20181;-65
2022/04/04 09:32:49;;;;;;;4.40;4.00;;;;;;;13.40;37.81;98641.53;4941599;29;20773;-65
2022/04/04 09:35:18;;;;;;;4.55;4.13;;;;;;;13.13;38.02;98638.41;4950495;29;20216;-65
2022/04/04 09:37:46;;;;;;;4.30;3.42;;;;;;;13.38;37.54;98645.19;4949994;29;20192;-65
2022/04/04 09:40:16;;;;;;;4.20;3.78;;;;;;;13.42;38.08;98636.22;4950011;29;20240;-65
2022/04/04 09:42:43;;;;;;;10.77;7.28;;;;;;;13.43;37.26;98633.50;4950114;29;20694;-66
2022/04/04 09:45:13;;;;;;;4.18;3.88;;;;;;;13.66;37.18;98629.13;4949463;28;20701;-66
2022/04/04 09:47:50;;;;;;;3.90;3.60;;;;;;;13.60;36.81;98625.22;4950155;29;20192;-66
2022/04/04 09:50:35;;;;;;;6.00;3.78;;;;;;;13.71;37.15;98621.78;4938351;29;20235;-65
2022/04/04 09:53:05;;;;;;;8.80;6.10;;;;;;;13.89;36.87;98620.34;4940136;29;20217;-65
2022/04/04 09:55:38;;;;;;;3.95;3.63;;;;;;;13.94;37.26;98629.44;4947556;29;20656;-65
2022/04/04 09:58:06;;;;;;;4.18;3.83;;;;;;;14.07;36.73;98611.09;4949721;29;20181;-65
2022/04/04 10:00:35;;;;;;;5.00;4.07;;;;;;;14.16;36.52;98618.16;4949782;29;20213;-65
2022/04/04 10:03:02;;;;;;;5.18;4.68;;;;;;;14.15;36.53;98600.91;4949528;28;20721;-65
2022/04/04 10:05:28;;;;;;;3.95;3.47;;;;;;;14.19;36.57;98608.38;4949708;29;20235;-66
2022/04/04 10:07:56;;;;;;;4.20;3.90;;;;;;;13.94;36.31;98600.03;4949545;29;20181;-66
2022/04/04 10:10:26;;;;;;;4.72;3.80;;;;;;;13.79;36.71;98598.59;4941920;29;20246;-66
2022/04/04 10:12:52;;;;;;;5.43;3.90;;;;;;;13.85;36.75;98598.13;4939193;29;20256;-66
2022/04/04 10:15:20;;;;;;;4.45;4.00;;;;;;;13.95;36.78;98593.88;4942963;29;20558;-66
2022/04/04 10:17:46;;;;;;;4.53;4.13;;;;;;;13.77;36.41;98593.53;4949754;29;20195;-66
2022/04/04 10:20:11;;;;;;;5.00;3.60;;;;;;;13.47;37.30;98585.50;4949440;29;20193;-66
2022/04/04 10:22:38;;;;;;;4.75;4.35;;;;;;;13.18;37.97;98578.31;4949526;29;20192;-66
2022/04/04 10:25:07;;;;;;;22.33;13.13;;;;;;;13.58;36.96;98579.47;4949339;29;20185;-66
2022/04/04 10:27:34;;;;;;;6.72;4.85;;;;;;;13.90;36.45;98564.78;4939604;29;20708;-66
2022/04/04 10:30:04;;;;;;;8.38;5.88;;;;;;;14.18;35.82;98577.25;4949141;29;20200;-65
2022/04/04 10:32:30;;;;;;;6.15;4.45;;;;;;;14.40;35.38;98566.78;4937638;29;20703;-66
2022/04/04 10:34:56;;;;;;;4.70;4.07;;;;;;;14.56;35.44;98568.00;4939481;29;20180;-65
2022/04/04 10:37:28;;;;;;;7.55;4.50;;;;;;;14.70;35.98;98564.28;4945669;29;20192;-66
2022/04/04 10:39:54;;;;;;;5.57;4.93;;;;;;;14.67;36.03;98564.50;4949251;29;20228;-65
2022/04/04 10:42:33;;;;;;;6.28;4.93;;;;;;;14.84;35.59;98563.94;4948989;29;20205;-65
2022/04/04 10:45:05;;;;;;;4.72;4.32;;;;;;;14.71;35.86;98565.91;4948810;29;20184;-65
2022/04/04 10:47:31;;;;;;;4.88;4.47;;;;;;;14.73;35.77;98554.41;4948794;29;20185;-65
2022/04/04 10:50:17;;;;;;;5.70;5.10;;;;;;;14.41;35.75;98550.22;4948656;29;20425;-65
2022/04/04 10:52:44;;;;;;;6.45;4.55;;;;;;;14.23;36.32;98549.13;4929319;29;20315;-66
2022/04/04 10:55:52;;;;;;;4.63;4.18;;;;;;;13.99;36.84;98549.25;4939028;29;20210;-65
2022/04/04 10:58:19;;;;;;;9.60;6.82;;;;;;;14.31;36.37;98547.53;4848548;29;20348;-65
2022/04/04 11:01:15;;;;;;;5.43;4.93;;;;;;;14.60;36.32;98538.16;4852149;29;20730;-66
2022/04/04 11:03:52;;;;;;;6.10;5.50;;;;;;;14.54;36.58;98530.03;4920050;28;20748;-65
2022/04/04 11:09:22;;;;;;;9.07;7.85;;;;;;;14.93;36.24;98524.09;4948488;29;20187;-66
2022/04/04 11:12:13;;;;;;;5.47;4.97;;;;;;;14.73;36.17;98506.69;4923529;29;20655;-66
2022/04/04 11:14:41;;;;;;;7.22;5.05;;;;;;;14.17;37.63;98520.94;4936952;29;20292;-66
2022/04/04 11:17:17;;;;;;;6.05;5.45;;;;;;;14.64;36.78;98523.09;4939642;29;20185;-66
2022/04/04 11:20:50;;;;;;;6.40;4.88;;;;;;;15.04;36.74;98513.59;4946121;29;20271;-66
2022/04/04 11:23:08;;;;;;;14.75;7.95;;;;;;;15.42;35.43;98519.00;4940076;29;20694;-66
2022/04/04 11:25:34;;;;;;;5.50;4.65;;;;;;;15.51;35.16;98519.00;4925680;29;20586;-66
2022/04/04 11:28:01;;;;;;;11.23;8.80;;;;;;;15.30;35.46;98509.59;4948731;29;20709;-65
2022/04/04 11:30:27;;;;;;;5.85;5.25;;;;;;;15.07;36.28;98502.91;4948342;29;20185;-65
2022/04/04 11:32:57;;;;;;;5.55;5.05;;;;;;;15.12;36.23;98506.78;4948614;29;20598;-66
2022/04/04 11:35:27;;;;;;;5.88;4.93;;;;;;;15.14;35.80;98509.25;4936019;29;20609;-65
2022/04/04 11:38:03;;;;;;;5.38;4.60;;;;;;;15.15;35.74;98498.69;4938708;29;20520;-65
2022/04/04 11:40:39;;;;;;;7.05;4.78;;;;;;;15.33;35.55;98504.97;4945603;29;20310;-65
2022/04/04 11:43:10;;;;;;;5.85;5.20;;;;;;;14.96;35.99;98500.38;4948568;29;20263;-65
2022/04/04 11:45:39;;;;;;;5.80;5.20;;;;;;;14.81;36.98;98493.88;4948716;29;20181;-65